sensor_id;sensor_type;location;lat;lon;timestamp;noise_LAeq;noise_LA_min;noise_LA_max;noise_LA01;noise_LA95
81666;Laerm;71083;51.796;10.952;2023-12-20T00:02:16;32.58;29.65;46.47;;
81666;Laerm;71083;51.796;10.952;2023-12-20T00:04:41;54.88;30.55;73.27;;
81666;Laerm;71083;51.796;10.952;2023-12-20T00:07:07;44.35;29.95;60.32;;
81666;Laerm;71083;51.796;10.952;2023-12-20T00:09:32;35.54;29.89;45.69;;
81666;Laerm;71083;51.796;10.952;2023-12-20T00:11:57;52.34;30.10;68.14;;
81666;Laerm;71083;51.796;10.952;2023-12-20T00:14:23;39.18;30.77;52.28;;
81666;Laerm;71083;51.796;10.952;2023-12-20T00:16:48;34.08;30.41;41.61;;
81666;Laerm;71083;51.796;10.952;2023-12-20T00:19:13;51.56;31.11;65.83;;
81666;Laerm;71083;51.796;10.952;2023-12-20T00:21:38;37.24;30.93;48.78;;
81666;Laerm;71083;51.796;10.952;2023-12-20T00:24:04;36.09;30.91;49.16;;
81666;Laerm;71083;51.796;10.952;2023-12-20T00:26:29;35.93;31.78;48.45;;
81666;Laerm;71083;51.796;10.952;2023-12-20T00:28:54;38.40;30.66;50.93;;
81666;Laerm;71083;51.796;10.952;2023-12-20T00:31:20;55.27;31.67;69.12;;
81666;Laerm;71083;51.796;10.952;2023-12-20T00:33:45;33.65;30.19;55.24;;
81666;Laerm;71083;51.796;10.952;2023-12-20T00:36:12;54.57;30.32;71.60;;
81666;Laerm;71083;51.796;10.952;2023-12-20T00:38:37;32.50;30.19;41.34;;
81666;Laerm;71083;51.796;10.952;2023-12-20T00:41:02;45.85;30.82;61.59;;
81666;Laerm;71083;51.796;10.952;2023-12-20T00:43:28;51.29;30.09;68.26;;
81666;Laerm;71083;51.796;10.952;2023-12-20T00:45:53;32.57;29.85;50.72;;
81666;Laerm;71083;51.796;10.952;2023-12-20T00:48:18;54.45;30.79;71.71;;
81666;Laerm;71083;51.796;10.952;2023-12-20T00:50:43;57.85;30.26;76.78;;
81666;Laerm;71083;51.796;10.952;2023-12-20T00:53:09;39.97;29.90;57.09;;
81666;Laerm;71083;51.796;10.952;2023-12-20T00:55:34;52.14;29.81;68.45;;
81666;Laerm;71083;51.796;10.952;2023-12-20T00:57:59;33.08;29.47;50.70;;
81666;Laerm;71083;51.796;10.952;2023-12-20T01:00:25;55.04;29.50;71.88;;
81666;Laerm;71083;51.796;10.952;2023-12-20T01:02:50;58.60;30.54;73.58;;
81666;Laerm;71083;51.796;10.952;2023-12-20T01:05:16;33.09;30.14;43.58;;
81666;Laerm;71083;51.796;10.952;2023-12-20T01:07:42;32.26;30.10;42.88;;
81666;Laerm;71083;51.796;10.952;2023-12-20T01:10:08;34.30;30.23;44.57;;
81666;Laerm;71083;51.796;10.952;2023-12-20T01:12:33;31.47;29.83;38.95;;
81666;Laerm;71083;51.796;10.952;2023-12-20T01:14:58;35.41;30.45;47.85;;
81666;Laerm;71083;51.796;10.952;2023-12-20T01:17:24;31.87;29.93;38.01;;
81666;Laerm;71083;51.796;10.952;2023-12-20T01:19:49;56.92;31.34;73.58;;
81666;Laerm;71083;51.796;10.952;2023-12-20T01:22:14;60.10;31.06;78.06;;
81666;Laerm;71083;51.796;10.952;2023-12-20T01:24:39;38.82;30.14;55.25;;
81666;Laerm;71083;51.796;10.952;2023-12-20T01:27:05;32.20;30.35;39.12;;
81666;Laerm;71083;51.796;10.952;2023-12-20T01:29:30;33.62;30.66;43.07;;
81666;Laerm;71083;51.796;10.952;2023-12-20T01:31:55;36.42;30.62;49.14;;
81666;Laerm;71083;51.796;10.952;2023-12-20T01:34:21;33.03;30.50;45.65;;
81666;Laerm;71083;51.796;10.952;2023-12-20T01:36:46;56.56;31.03;70.87;;
81666;Laerm;71083;51.796;10.952;2023-12-20T01:39:11;54.91;30.53;71.68;;
81666;Laerm;71083;51.796;10.952;2023-12-20T01:41:36;32.62;30.18;42.35;;
81666;Laerm;71083;51.796;10.952;2023-12-20T01:44:02;37.86;29.85;50.42;;
81666;Laerm;71083;51.796;10.952;2023-12-20T01:46:27;52.26;30.38;68.63;;
81666;Laerm;71083;51.796;10.952;2023-12-20T01:48:52;56.32;30.46;73.50;;
81666;Laerm;71083;51.796;10.952;2023-12-20T01:51:18;57.61;30.12;71.85;;
81666;Laerm;71083;51.796;10.952;2023-12-20T01:53:44;38.19;29.33;50.60;;
81666;Laerm;71083;51.796;10.952;2023-12-20T01:56:09;54.18;30.50;70.88;;
81666;Laerm;71083;51.796;10.952;2023-12-20T01:58:38;50.45;29.53;65.52;;
81666;Laerm;71083;51.796;10.952;2023-12-20T02:01:04;30.27;29.17;32.69;;
81666;Laerm;71083;51.796;10.952;2023-12-20T02:03:29;29.79;28.71;31.74;;
81666;Laerm;71083;51.796;10.952;2023-12-20T02:05:54;30.80;29.45;40.96;;
81666;Laerm;71083;51.796;10.952;2023-12-20T02:08:20;61.72;29.72;79.11;;
81666;Laerm;71083;51.796;10.952;2023-12-20T02:10:45;56.51;29.26;70.29;;
81666;Laerm;71083;51.796;10.952;2023-12-20T02:13:10;30.18;28.68;44.30;;
81666;Laerm;71083;51.796;10.952;2023-12-20T02:15:35;58.18;28.61;72.77;;
81666;Laerm;71083;51.796;10.952;2023-12-20T02:18:05;35.24;28.49;52.83;;
81666;Laerm;71083;51.796;10.952;2023-12-20T02:20:30;56.62;28.29;72.54;;
81666;Laerm;71083;51.796;10.952;2023-12-20T02:22:56;29.03;28.06;32.80;;
81666;Laerm;71083;51.796;10.952;2023-12-20T02:25:21;35.92;28.38;48.82;;
81666;Laerm;71083;51.796;10.952;2023-12-20T02:27:46;52.25;28.77;69.47;;
81666;Laerm;71083;51.796;10.952;2023-12-20T02:30:12;30.67;28.69;36.36;;
81666;Laerm;71083;51.796;10.952;2023-12-20T02:32:37;48.01;28.85;63.88;;
81666;Laerm;71083;51.796;10.952;2023-12-20T02:35:03;60.79;28.74;74.93;;
81666;Laerm;71083;51.796;10.952;2023-12-20T02:37:28;63.97;28.50;84.13;;
81666;Laerm;71083;51.796;10.952;2023-12-20T02:39:53;30.74;28.28;43.01;;
81666;Laerm;71083;51.796;10.952;2023-12-20T02:42:18;60.49;28.73;78.53;;
81666;Laerm;71083;51.796;10.952;2023-12-20T02:44:44;62.95;29.13;80.35;;
81666;Laerm;71083;51.796;10.952;2023-12-20T02:47:09;30.75;28.61;36.76;;
81666;Laerm;71083;51.796;10.952;2023-12-20T02:49:34;30.15;29.00;36.10;;
81666;Laerm;71083;51.796;10.952;2023-12-20T02:51:59;57.62;28.97;69.83;;
81666;Laerm;71083;51.796;10.952;2023-12-20T02:54:25;54.50;28.92;71.42;;
81666;Laerm;71083;51.796;10.952;2023-12-20T02:56:50;52.16;29.18;68.19;;
81666;Laerm;71083;51.796;10.952;2023-12-20T02:59:15;55.09;29.52;71.24;;
81666;Laerm;71083;51.796;10.952;2023-12-20T03:01:41;32.14;28.48;41.75;;
81666;Laerm;71083;51.796;10.952;2023-12-20T03:04:06;62.06;28.87;81.07;;
81666;Laerm;71083;51.796;10.952;2023-12-20T03:06:32;59.52;29.20;75.17;;
81666;Laerm;71083;51.796;10.952;2023-12-20T03:08:57;57.01;29.42;72.21;;
81666;Laerm;71083;51.796;10.952;2023-12-20T03:11:26;59.82;29.75;74.51;;
81666;Laerm;71083;51.796;10.952;2023-12-20T03:13:51;35.19;31.20;48.89;;
81666;Laerm;71083;51.796;10.952;2023-12-20T03:16:16;56.86;31.75;70.20;;
81666;Laerm;71083;51.796;10.952;2023-12-20T03:18:41;43.41;30.64;60.19;;
81666;Laerm;71083;51.796;10.952;2023-12-20T03:21:07;40.92;30.59;52.76;;
81666;Laerm;71083;51.796;10.952;2023-12-20T03:23:32;37.60;29.81;48.99;;
81666;Laerm;71083;51.796;10.952;2023-12-20T03:26:01;56.27;31.22;70.87;;
81666;Laerm;71083;51.796;10.952;2023-12-20T03:28:27;58.87;32.06;73.97;;
81666;Laerm;71083;51.796;10.952;2023-12-20T03:30:52;53.49;29.06;68.13;;
81666;Laerm;71083;51.796;10.952;2023-12-20T03:33:17;63.76;31.52;79.39;;
81666;Laerm;71083;51.796;10.952;2023-12-20T03:35:43;56.13;29.37;69.37;;
81666;Laerm;71083;51.796;10.952;2023-12-20T03:38:08;58.48;29.31;70.10;;
81666;Laerm;71083;51.796;10.952;2023-12-20T03:40:34;54.80;30.53;69.65;;
81666;Laerm;71083;51.796;10.952;2023-12-20T03:42:59;59.56;29.12;72.62;;
81666;Laerm;71083;51.796;10.952;2023-12-20T03:45:24;39.06;29.68;50.55;;
81666;Laerm;71083;51.796;10.952;2023-12-20T03:47:50;59.85;29.85;73.28;;
81666;Laerm;71083;51.796;10.952;2023-12-20T03:50:20;62.22;30.48;75.27;;
81666;Laerm;71083;51.796;10.952;2023-12-20T03:52:45;63.54;31.14;79.84;;
81666;Laerm;71083;51.796;10.952;2023-12-20T03:55:10;61.53;33.18;71.96;;
81666;Laerm;71083;51.796;10.952;2023-12-20T03:57:35;59.80;30.83;72.11;;
81666;Laerm;71083;51.796;10.952;2023-12-20T04:00:01;62.76;30.61;77.08;;
81666;Laerm;71083;51.796;10.952;2023-12-20T04:02:26;58.88;31.73;72.80;;
81666;Laerm;71083;51.796;10.952;2023-12-20T04:04:51;61.56;31.71;73.24;;
81666;Laerm;71083;51.796;10.952;2023-12-20T04:07:18;60.54;33.56;70.72;;
81666;Laerm;71083;51.796;10.952;2023-12-20T04:09:43;63.04;33.31;80.15;;
81666;Laerm;71083;51.796;10.952;2023-12-20T04:12:08;56.45;32.34;68.31;;
81666;Laerm;71083;51.796;10.952;2023-12-20T04:14:34;65.15;36.08;83.18;;
81666;Laerm;71083;51.796;10.952;2023-12-20T04:16:59;63.30;35.59;74.29;;
81666;Laerm;71083;51.796;10.952;2023-12-20T04:19:24;64.97;31.45;77.42;;
81666;Laerm;71083;51.796;10.952;2023-12-20T04:21:49;62.38;32.08;72.31;;
81666;Laerm;71083;51.796;10.952;2023-12-20T04:24:15;65.64;44.65;78.57;;
81666;Laerm;71083;51.796;10.952;2023-12-20T04:26:40;63.75;40.25;73.44;;
81666;Laerm;71083;51.796;10.952;2023-12-20T04:29:06;64.36;37.91;76.24;;
81666;Laerm;71083;51.796;10.952;2023-12-20T04:31:31;64.24;37.60;75.84;;
81666;Laerm;71083;51.796;10.952;2023-12-20T04:33:56;62.58;42.21;75.20;;
81666;Laerm;71083;51.796;10.952;2023-12-20T04:36:21;65.17;40.56;73.61;;
81666;Laerm;71083;51.796;10.952;2023-12-20T04:38:47;65.72;47.47;75.69;;
81666;Laerm;71083;51.796;10.952;2023-12-20T04:41:12;65.38;41.87;80.06;;
81666;Laerm;71083;51.796;10.952;2023-12-20T04:43:40;64.07;40.98;75.30;;
81666;Laerm;71083;51.796;10.952;2023-12-20T04:46:06;65.91;42.72;74.38;;
81666;Laerm;71083;51.796;10.952;2023-12-20T04:48:31;64.84;37.70;74.57;;
81666;Laerm;71083;51.796;10.952;2023-12-20T04:50:56;63.25;38.47;72.66;;
81666;Laerm;71083;51.796;10.952;2023-12-20T04:53:22;63.40;35.47;77.56;;
81666;Laerm;71083;51.796;10.952;2023-12-20T04:55:48;65.58;35.56;75.53;;
81666;Laerm;71083;51.796;10.952;2023-12-20T04:58:13;64.50;34.04;78.22;;
81666;Laerm;71083;51.796;10.952;2023-12-20T05:00:38;64.93;40.50;73.67;;
81666;Laerm;71083;51.796;10.952;2023-12-20T05:03:04;64.58;42.33;76.76;;
81666;Laerm;71083;51.796;10.952;2023-12-20T05:05:29;63.87;40.68;76.32;;
81666;Laerm;71083;51.796;10.952;2023-12-20T05:07:54;61.04;40.68;72.11;;
81666;Laerm;71083;51.796;10.952;2023-12-20T05:10:20;63.38;42.84;73.50;;
81666;Laerm;71083;51.796;10.952;2023-12-20T05:12:45;65.99;48.42;76.27;;
81666;Laerm;71083;51.796;10.952;2023-12-20T05:15:10;65.11;49.20;75.16;;
81666;Laerm;71083;51.796;10.952;2023-12-20T05:17:35;65.64;38.47;76.85;;
81666;Laerm;71083;51.796;10.952;2023-12-20T05:20:01;65.33;46.16;73.89;;
81666;Laerm;71083;51.796;10.952;2023-12-20T05:22:26;66.70;41.46;80.53;;
81666;Laerm;71083;51.796;10.952;2023-12-20T05:24:52;64.69;43.95;72.79;;
81666;Laerm;71083;51.796;10.952;2023-12-20T05:27:18;65.34;42.71;76.42;;
81666;Laerm;71083;51.796;10.952;2023-12-20T05:29:43;64.47;39.58;75.59;;
81666;Laerm;71083;51.796;10.952;2023-12-20T05:32:08;67.77;49.33;80.00;;
81666;Laerm;71083;51.796;10.952;2023-12-20T05:34:34;66.78;46.15;76.63;;
81666;Laerm;71083;51.796;10.952;2023-12-20T05:36:59;66.47;45.17;77.51;;
81666;Laerm;71083;51.796;10.952;2023-12-20T05:39:24;66.60;52.70;79.50;;
81666;Laerm;71083;51.796;10.952;2023-12-20T05:41:50;67.75;51.14;82.91;;
81666;Laerm;71083;51.796;10.952;2023-12-20T05:44:16;66.47;44.92;75.04;;
81666;Laerm;71083;51.796;10.952;2023-12-20T05:46:41;67.86;50.23;79.38;;
81666;Laerm;71083;51.796;10.952;2023-12-20T05:49:06;65.73;44.61;75.30;;
81666;Laerm;71083;51.796;10.952;2023-12-20T05:51:32;65.35;48.08;75.57;;
81666;Laerm;71083;51.796;10.952;2023-12-20T05:53:58;67.31;54.43;78.08;;
81666;Laerm;71083;51.796;10.952;2023-12-20T05:56:23;66.33;45.17;78.61;;
81666;Laerm;71083;51.796;10.952;2023-12-20T05:58:48;68.47;52.36;81.14;;
81666;Laerm;71083;51.796;10.952;2023-12-20T06:01:14;67.27;42.96;80.67;;
81666;Laerm;71083;51.796;10.952;2023-12-20T06:03:41;66.18;54.07;75.33;;
81666;Laerm;71083;51.796;10.952;2023-12-20T06:06:07;69.29;46.66;81.71;;
81666;Laerm;71083;51.796;10.952;2023-12-20T06:08:32;69.62;51.99;84.36;;
81666;Laerm;71083;51.796;10.952;2023-12-20T06:10:57;67.40;48.08;75.07;;
81666;Laerm;71083;51.796;10.952;2023-12-20T06:13:23;66.21;41.64;75.07;;
81666;Laerm;71083;51.796;10.952;2023-12-20T06:15:48;67.04;46.59;75.60;;
81666;Laerm;71083;51.796;10.952;2023-12-20T06:18:13;66.46;53.06;78.46;;
81666;Laerm;71083;51.796;10.952;2023-12-20T06:20:39;68.36;50.78;78.58;;
81666;Laerm;71083;51.796;10.952;2023-12-20T06:23:04;67.39;49.55;75.93;;
81666;Laerm;71083;51.796;10.952;2023-12-20T06:25:29;65.72;49.55;74.84;;
81666;Laerm;71083;51.796;10.952;2023-12-20T06:27:55;67.03;43.24;80.67;;
81666;Laerm;71083;51.796;10.952;2023-12-20T06:30:20;67.17;51.21;77.59;;
81666;Laerm;71083;51.796;10.952;2023-12-20T06:32:45;64.19;43.78;75.31;;
81666;Laerm;71083;51.796;10.952;2023-12-20T06:35:12;68.67;52.57;79.68;;
81666;Laerm;71083;51.796;10.952;2023-12-20T06:37:37;66.01;42.47;76.37;;
81666;Laerm;71083;51.796;10.952;2023-12-20T06:40:02;67.23;46.95;76.81;;
81666;Laerm;71083;51.796;10.952;2023-12-20T06:42:28;67.14;44.78;75.63;;
81666;Laerm;71083;51.796;10.952;2023-12-20T06:44:53;66.65;42.84;77.58;;
81666;Laerm;71083;51.796;10.952;2023-12-20T06:47:18;67.59;50.54;75.16;;
81666;Laerm;71083;51.796;10.952;2023-12-20T06:49:44;68.88;45.36;82.09;;
81666;Laerm;71083;51.796;10.952;2023-12-20T06:52:09;65.92;47.13;79.53;;
81666;Laerm;71083;51.796;10.952;2023-12-20T06:54:35;68.68;52.71;85.13;;
81666;Laerm;71083;51.796;10.952;2023-12-20T06:57:00;67.85;48.91;79.26;;
81666;Laerm;71083;51.796;10.952;2023-12-20T06:59:28;66.89;49.72;78.00;;
81666;Laerm;71083;51.796;10.952;2023-12-20T07:01:53;67.74;43.06;79.83;;
81666;Laerm;71083;51.796;10.952;2023-12-20T07:04:19;67.19;43.45;78.10;;
81666;Laerm;71083;51.796;10.952;2023-12-20T07:06:46;67.18;47.00;80.97;;
81666;Laerm;71083;51.796;10.952;2023-12-20T07:09:12;67.52;46.57;79.20;;
81666;Laerm;71083;51.796;10.952;2023-12-20T07:11:38;67.09;48.32;78.65;;
81666;Laerm;71083;51.796;10.952;2023-12-20T07:14:03;68.35;58.05;79.77;;
81666;Laerm;71083;51.796;10.952;2023-12-20T07:16:29;66.18;55.59;75.99;;
81666;Laerm;71083;51.796;10.952;2023-12-20T07:18:54;66.78;55.34;74.53;;
81666;Laerm;71083;51.796;10.952;2023-12-20T07:21:19;66.95;55.49;76.87;;
81666;Laerm;71083;51.796;10.952;2023-12-20T07:23:45;67.84;56.17;79.72;;
81666;Laerm;71083;51.796;10.952;2023-12-20T07:26:10;67.40;54.67;74.35;;
81666;Laerm;71083;51.796;10.952;2023-12-20T07:28:36;68.29;56.25;80.26;;
81666;Laerm;71083;51.796;10.952;2023-12-20T07:31:01;65.68;54.15;77.77;;
81666;Laerm;71083;51.796;10.952;2023-12-20T07:33:27;67.15;56.51;78.98;;
81666;Laerm;71083;51.796;10.952;2023-12-20T07:35:52;66.67;54.02;74.45;;
81666;Laerm;71083;51.796;10.952;2023-12-20T07:38:17;69.43;56.96;79.07;;
81666;Laerm;71083;51.796;10.952;2023-12-20T07:40:42;67.49;55.78;78.31;;
81666;Laerm;71083;51.796;10.952;2023-12-20T07:43:08;64.91;49.49;75.71;;
81666;Laerm;71083;51.796;10.952;2023-12-20T07:45:33;69.98;47.25;82.39;;
81666;Laerm;71083;51.796;10.952;2023-12-20T07:47:58;67.42;51.69;75.87;;
81666;Laerm;71083;51.796;10.952;2023-12-20T07:50:24;63.60;37.81;74.96;;
81666;Laerm;71083;51.796;10.952;2023-12-20T07:52:49;66.90;45.03;73.36;;
81666;Laerm;71083;51.796;10.952;2023-12-20T07:55:14;68.93;56.05;78.42;;
81666;Laerm;71083;51.796;10.952;2023-12-20T07:57:40;66.66;43.53;76.79;;
81666;Laerm;71083;51.796;10.952;2023-12-20T08:00:05;67.76;43.45;83.04;;
81666;Laerm;71083;51.796;10.952;2023-12-20T08:02:31;65.94;44.50;76.83;;
81666;Laerm;71083;51.796;10.952;2023-12-20T08:04:56;66.68;44.62;77.94;;
81666;Laerm;71083;51.796;10.952;2023-12-20T08:07:21;65.23;48.22;73.17;;
81666;Laerm;71083;51.796;10.952;2023-12-20T08:09:46;69.54;45.99;78.90;;
81666;Laerm;71083;51.796;10.952;2023-12-20T08:12:12;64.23;45.25;72.69;;
81666;Laerm;71083;51.796;10.952;2023-12-20T08:14:37;67.86;47.34;81.14;;
81666;Laerm;71083;51.796;10.952;2023-12-20T08:17:02;69.23;51.22;80.46;;
81666;Laerm;71083;51.796;10.952;2023-12-20T08:19:28;65.41;43.87;75.71;;
81666;Laerm;71083;51.796;10.952;2023-12-20T08:21:53;65.54;42.60;76.55;;
81666;Laerm;71083;51.796;10.952;2023-12-20T08:24:18;66.06;46.61;78.76;;
81666;Laerm;71083;51.796;10.952;2023-12-20T08:26:44;67.16;52.82;80.20;;
81666;Laerm;71083;51.796;10.952;2023-12-20T08:29:09;69.13;47.47;79.87;;
81666;Laerm;71083;51.796;10.952;2023-12-20T08:31:34;66.86;41.79;75.44;;
81666;Laerm;71083;51.796;10.952;2023-12-20T08:33:59;66.84;49.79;74.10;;
81666;Laerm;71083;51.796;10.952;2023-12-20T08:36:25;67.21;53.62;79.51;;
81666;Laerm;71083;51.796;10.952;2023-12-20T08:38:50;69.11;59.15;87.00;;
81666;Laerm;71083;51.796;10.952;2023-12-20T08:41:16;66.76;55.33;74.67;;
81666;Laerm;71083;51.796;10.952;2023-12-20T08:43:42;67.81;56.49;75.81;;
81666;Laerm;71083;51.796;10.952;2023-12-20T08:46:07;68.42;58.98;75.51;;
81666;Laerm;71083;51.796;10.952;2023-12-20T08:48:34;68.90;58.37;80.16;;
81666;Laerm;71083;51.796;10.952;2023-12-20T08:51:00;67.84;53.25;78.01;;
81666;Laerm;71083;51.796;10.952;2023-12-20T08:53:25;69.20;56.04;79.69;;
81666;Laerm;71083;51.796;10.952;2023-12-20T08:55:50;69.93;56.29;78.50;;
81666;Laerm;71083;51.796;10.952;2023-12-20T08:58:16;69.84;54.85;85.55;;
81666;Laerm;71083;51.796;10.952;2023-12-20T09:00:42;69.51;59.14;78.61;;
81666;Laerm;71083;51.796;10.952;2023-12-20T09:03:07;67.15;55.24;78.69;;
81666;Laerm;71083;51.796;10.952;2023-12-20T09:05:33;66.27;53.44;74.80;;
81666;Laerm;71083;51.796;10.952;2023-12-20T09:07:58;68.12;54.94;78.10;;
81666;Laerm;71083;51.796;10.952;2023-12-20T09:10:23;69.09;54.46;80.55;;
81666;Laerm;71083;51.796;10.952;2023-12-20T09:12:52;69.07;53.63;78.57;;
81666;Laerm;71083;51.796;10.952;2023-12-20T09:15:21;67.02;50.53;77.83;;
81666;Laerm;71083;51.796;10.952;2023-12-20T09:17:46;68.36;48.10;82.05;;
81666;Laerm;71083;51.796;10.952;2023-12-20T09:20:12;65.72;42.85;77.71;;
81666;Laerm;71083;51.796;10.952;2023-12-20T09:22:38;69.01;54.46;79.98;;
81666;Laerm;71083;51.796;10.952;2023-12-20T09:25:04;67.66;45.29;78.28;;
81666;Laerm;71083;51.796;10.952;2023-12-20T09:27:30;70.71;54.40;79.21;;
81666;Laerm;71083;51.796;10.952;2023-12-20T09:29:55;67.84;49.54;76.29;;
81666;Laerm;71083;51.796;10.952;2023-12-20T09:32:20;67.85;47.26;78.98;;
81666;Laerm;71083;51.796;10.952;2023-12-20T09:34:47;67.85;50.01;79.18;;
81666;Laerm;71083;51.796;10.952;2023-12-20T09:37:12;66.06;50.05;76.30;;
81666;Laerm;71083;51.796;10.952;2023-12-20T09:39:38;67.88;45.72;74.67;;
81666;Laerm;71083;51.796;10.952;2023-12-20T09:42:04;67.29;58.30;75.04;;
81666;Laerm;71083;51.796;10.952;2023-12-20T09:44:30;69.79;55.99;79.62;;
81666;Laerm;71083;51.796;10.952;2023-12-20T09:46:55;67.80;55.78;83.05;;
81666;Laerm;71083;51.796;10.952;2023-12-20T09:49:21;68.65;54.91;76.25;;
81666;Laerm;71083;51.796;10.952;2023-12-20T09:51:47;67.93;50.20;73.55;;
81666;Laerm;71083;51.796;10.952;2023-12-20T09:54:16;70.25;47.53;78.21;;
81666;Laerm;71083;51.796;10.952;2023-12-20T09:56:41;70.50;51.60;86.06;;
81666;Laerm;71083;51.796;10.952;2023-12-20T09:59:07;68.60;51.29;78.09;;
81666;Laerm;71083;51.796;10.952;2023-12-20T10:01:32;83.27;52.89;103.00;;
81666;Laerm;71083;51.796;10.952;2023-12-20T10:03:58;68.70;57.02;76.67;;
81666;Laerm;71083;51.796;10.952;2023-12-20T10:06:25;69.15;60.78;79.31;;
81666;Laerm;71083;51.796;10.952;2023-12-20T10:08:50;68.62;56.49;76.04;;
81666;Laerm;71083;51.796;10.952;2023-12-20T10:11:16;68.85;55.15;80.52;;
81666;Laerm;71083;51.796;10.952;2023-12-20T10:13:42;69.60;56.74;81.20;;
81666;Laerm;71083;51.796;10.952;2023-12-20T10:16:08;68.13;56.81;74.99;;
81666;Laerm;71083;51.796;10.952;2023-12-20T10:18:33;69.69;57.49;77.84;;
81666;Laerm;71083;51.796;10.952;2023-12-20T10:20:59;68.73;55.38;77.15;;
81666;Laerm;71083;51.796;10.952;2023-12-20T10:23:25;69.56;56.58;81.64;;
81666;Laerm;71083;51.796;10.952;2023-12-20T10:25:56;69.48;58.73;80.22;;
81666;Laerm;71083;51.796;10.952;2023-12-20T10:28:23;68.28;51.57;80.01;;
81666;Laerm;71083;51.796;10.952;2023-12-20T10:30:52;69.16;56.00;79.99;;
81666;Laerm;71083;51.796;10.952;2023-12-20T10:33:23;69.51;51.43;78.70;;
81666;Laerm;71083;51.796;10.952;2023-12-20T10:35:49;67.96;49.21;78.55;;
81666;Laerm;71083;51.796;10.952;2023-12-20T10:38:14;70.07;52.59;78.34;;
81666;Laerm;71083;51.796;10.952;2023-12-20T10:40:40;69.23;56.84;78.47;;
81666;Laerm;71083;51.796;10.952;2023-12-20T10:43:06;70.21;51.75;81.68;;
81666;Laerm;71083;51.796;10.952;2023-12-20T10:45:33;67.37;48.83;79.28;;
81666;Laerm;71083;51.796;10.952;2023-12-20T10:47:58;67.88;53.03;77.35;;
81666;Laerm;71083;51.796;10.952;2023-12-20T10:50:25;68.04;49.08;76.45;;
81666;Laerm;71083;51.796;10.952;2023-12-20T10:52:51;68.31;51.01;81.87;;
81666;Laerm;71083;51.796;10.952;2023-12-20T10:55:20;67.71;53.00;77.33;;
81666;Laerm;71083;51.796;10.952;2023-12-20T10:57:46;69.73;53.14;79.68;;
81666;Laerm;71083;51.796;10.952;2023-12-20T11:00:16;68.32;55.51;78.39;;
81666;Laerm;71083;51.796;10.952;2023-12-20T11:02:42;65.06;49.28;74.85;;
81666;Laerm;71083;51.796;10.952;2023-12-20T11:07:37;66.34;53.97;75.06;;
81666;Laerm;71083;51.796;10.952;2023-12-20T11:10:19;67.62;49.73;73.18;;
81666;Laerm;71083;51.796;10.952;2023-12-20T11:13:28;67.81;49.28;73.75;;
81666;Laerm;71083;51.796;10.952;2023-12-20T11:15:35;70.20;47.39;81.84;;
81666;Laerm;71083;51.796;10.952;2023-12-20T11:18:00;67.28;54.24;75.09;;
81666;Laerm;71083;51.796;10.952;2023-12-20T11:20:38;68.30;51.34;77.63;;
81666;Laerm;71083;51.796;10.952;2023-12-20T11:23:03;65.42;48.61;73.74;;
81666;Laerm;71083;51.796;10.952;2023-12-20T11:25:29;68.96;51.48;79.42;;
81666;Laerm;71083;51.796;10.952;2023-12-20T11:28:08;67.62;45.19;75.19;;
81666;Laerm;71083;51.796;10.952;2023-12-20T11:30:47;67.24;43.21;79.21;;
81666;Laerm;71083;51.796;10.952;2023-12-20T11:33:13;68.80;49.79;81.27;;
81666;Laerm;71083;51.796;10.952;2023-12-20T11:35:38;66.64;48.25;74.81;;
81666;Laerm;71083;51.796;10.952;2023-12-20T11:38:04;68.62;45.99;79.81;;
81666;Laerm;71083;51.796;10.952;2023-12-20T11:40:30;66.07;52.31;74.18;;
81666;Laerm;71083;51.796;10.952;2023-12-20T11:42:58;65.93;53.88;73.84;;
81666;Laerm;71083;51.796;10.952;2023-12-20T11:45:24;68.29;56.75;74.03;;
81666;Laerm;71083;51.796;10.952;2023-12-20T11:47:50;68.00;56.02;77.41;;
81666;Laerm;71083;51.796;10.952;2023-12-20T11:50:16;68.68;54.22;79.46;;
81666;Laerm;71083;51.796;10.952;2023-12-20T11:52:41;67.88;53.83;74.74;;
81666;Laerm;71083;51.796;10.952;2023-12-20T11:55:06;68.95;55.37;75.69;;
81666;Laerm;71083;51.796;10.952;2023-12-20T11:57:32;69.12;58.14;79.81;;
81666;Laerm;71083;51.796;10.952;2023-12-20T11:59:57;68.01;56.91;75.45;;
81666;Laerm;71083;51.796;10.952;2023-12-20T12:02:23;69.72;56.01;79.08;;
81666;Laerm;71083;51.796;10.952;2023-12-20T12:04:49;68.39;54.47;74.37;;
81666;Laerm;71083;51.796;10.952;2023-12-20T12:07:15;68.03;55.95;77.92;;
81666;Laerm;71083;51.796;10.952;2023-12-20T12:09:41;67.32;55.04;75.79;;
81666;Laerm;71083;51.796;10.952;2023-12-20T12:12:06;68.03;54.14;76.63;;
81666;Laerm;71083;51.796;10.952;2023-12-20T12:14:32;68.80;53.52;86.82;;
81666;Laerm;71083;51.796;10.952;2023-12-20T12:16:57;69.29;49.81;82.96;;
81666;Laerm;71083;51.796;10.952;2023-12-20T12:19:23;66.26;52.39;73.13;;
81666;Laerm;71083;51.796;10.952;2023-12-20T12:21:51;69.65;47.35;86.51;;
81666;Laerm;71083;51.796;10.952;2023-12-20T12:24:19;68.98;45.03;78.07;;
81666;Laerm;71083;51.796;10.952;2023-12-20T12:26:49;65.88;49.60;72.72;;
81666;Laerm;71083;51.796;10.952;2023-12-20T12:29:14;68.70;51.91;77.64;;
81666;Laerm;71083;51.796;10.952;2023-12-20T12:31:40;67.58;48.44;73.43;;
81666;Laerm;71083;51.796;10.952;2023-12-20T12:34:05;68.62;48.47;77.56;;
81666;Laerm;71083;51.796;10.952;2023-12-20T12:36:31;70.55;48.85;81.66;;
81666;Laerm;71083;51.796;10.952;2023-12-20T12:38:56;67.22;53.89;75.16;;
81666;Laerm;71083;51.796;10.952;2023-12-20T12:41:22;66.34;51.07;76.10;;
81666;Laerm;71083;51.796;10.952;2023-12-20T12:43:48;69.30;53.72;80.97;;
81666;Laerm;71083;51.796;10.952;2023-12-20T12:46:13;67.91;55.24;75.19;;
81666;Laerm;71083;51.796;10.952;2023-12-20T12:48:38;67.64;50.92;74.67;;
81666;Laerm;71083;51.796;10.952;2023-12-20T12:51:04;67.96;49.82;82.67;;
81666;Laerm;71083;51.796;10.952;2023-12-20T12:53:29;67.35;53.67;74.20;;
81666;Laerm;71083;51.796;10.952;2023-12-20T12:55:55;68.51;47.93;75.31;;
81666;Laerm;71083;51.796;10.952;2023-12-20T12:58:20;69.30;48.14;80.86;;
81666;Laerm;71083;51.796;10.952;2023-12-20T13:00:45;68.94;52.86;78.26;;
81666;Laerm;71083;51.796;10.952;2023-12-20T13:03:11;69.55;54.83;76.45;;
81666;Laerm;71083;51.796;10.952;2023-12-20T13:05:36;68.41;55.17;79.42;;
81666;Laerm;71083;51.796;10.952;2023-12-20T13:08:01;69.57;52.41;77.50;;
81666;Laerm;71083;51.796;10.952;2023-12-20T13:10:26;67.67;46.85;75.17;;
81666;Laerm;71083;51.796;10.952;2023-12-20T13:12:52;69.53;58.77;75.79;;
81666;Laerm;71083;51.796;10.952;2023-12-20T13:15:18;67.73;53.35;75.03;;
81666;Laerm;71083;51.796;10.952;2023-12-20T13:17:44;69.41;51.78;80.41;;
81666;Laerm;71083;51.796;10.952;2023-12-20T13:20:11;70.62;55.50;81.38;;
81666;Laerm;71083;51.796;10.952;2023-12-20T13:22:36;67.76;52.76;75.18;;
81666;Laerm;71083;51.796;10.952;2023-12-20T13:25:02;68.53;54.07;76.92;;
81666;Laerm;71083;51.796;10.952;2023-12-20T13:27:28;69.29;51.98;78.31;;